Strona główna
METAR-TAF:

METAR-TAF

Lotnisko :

Port lotniczy Grenchen

Grenchen, Szwajcaria

Szerokość geograficzna: 47-10-53N, Długość geograficzna: 007-24-59E, wysokość: 430 m

Aktualna obserwacja pogody

Raport powstał 32 minut temu, godzina 11:20 UTC
Cisza
Temperatura 7°C
Wilgotność 87%
Ciśnienie 1010 hPa
Widzialność 10 km lub więcej
Brak chmur poniżej 1500 m i brak chmur cumulonimbus

METAR: LSZG 161120Z 00000KT CAVOK 07/05 Q1010 NOSIG

czas: 12:52 (11:52 UTC)

Prognoza

Raport powstał 27 minut temu, godzina 11:25 UTC
Prognoza ważna od 16 godzina 12 UTC do 16 godzina 21 UTC
Wiatr 3 kt z kierunków zmiennych
Widzialność 10 km lub więcej
Brak chmur poniżej 1500 m i brak chmur cumulonimbus
Stopniowe zmiany
od 16 godzina 15 UTC do 16 godzina 18 UTC
Widzialność 10 km lub więcej
Rozproszone chmury na wysokości 6000 ft
Prawdopodobieństwo 40%
od 16 godzina 19 UTC do 16 godzina 21 UTC
Widzialność: 4500 m
zamglenie

TAF: LSZG 161125Z 1612/1621 VRB03KT CAVOK BECMG 1615/1618 9999 SCT060 PROB40 1619/1621 4500 BR

Obserwacja i prognoza pogody dla ponad 4000 lotnisk (raport METAR i TAF).

Dostępne stacje oznaczono żółtymi i czerwonymi punktami na mapie.

Najedź kursorem aby zobaczyć nazwę stacji.

Kliknij aby zobaczyć obserwacje i prognozy pogody.

Aby zmienić mapę: kliknij na zielony przycisk z czarnym krzyżykiem, aby powiększyć; na zielony przycisk z myślnikiem, aby pomniejszyć; na zielone strzałki, aby przejść do map sąsiednich.


METAR-TAF: